Search for airport 
image banner adimage banner adimage banner ad
image banner ad

CJO3 - Jenkins Cove

Located in Kars, Canada

ICAO - , IATA -

Data provided by Airmate  

General information

Coordinates: N45°35'38" W65°57'25"
Elevation is 20 feet MSL.
Magnetic variation is -17.4167° East
View others Airports in New Brunswick

Operational data

Special qualification required
Current time UTC:
Current local time:
Weather at : CYSJ - Saint John ( 31 km )
METAR: CYSJ 062300Z 20023G37KT 3SM -DZ BR OVC004 12/12 A2970 RMK SF8 SLP062 DENSITY ALT 400FT
TAF: TAF CYSJ 061740Z 0618/0706 15018G28KT 2SM SHRA BR OVC005 TEMPO 0618/0623 6SM -DZ -RA BR OVC010 PROB30 0618/0623 OVC003 FM062300 17015G30KT 1SM -DZ BR OVC005 TEMPO 0623/0703 3SM -RA BR OVC010 FM070300 21020G30KT 1SM -RA BR OVC004 TEMPO 0703/0706 3SM -SHRA BR OVC008 RMK NXT FCST BY 070000Z
View NOTAMs / SUP AIP / TFR affecting this airport [VIEW]
Communications frequencies: [VIEW]

Runways:

RWY identifierQFULength (ft)Width (ft)SurfaceLDA (ft)
W00WATER

Airport contact information

Address: Kars Canada

Satellite view of CJO3